sensor_id;sensor_type;location;lat;lon;timestamp;P1;durP1;ratioP1;P2;durP2;ratioP2
62338;SDS011;48368;53.406;6.214;2023-01-15T01:39:38;17.17;;;2.60;;
62338;SDS011;48368;53.406;6.214;2023-01-15T01:42:11;18.55;;;2.17;;
62338;SDS011;48368;53.406;6.214;2023-01-15T01:47:19;26.23;;;3.13;;
62338;SDS011;48368;53.406;6.214;2023-01-15T01:49:48;21.48;;;2.67;;
62338;SDS011;48368;53.406;6.214;2023-01-15T01:52:24;20.60;;;3.55;;
62338;SDS011;48368;53.406;6.214;2023-01-15T01:55:00;24.25;;;3.50;;
62338;SDS011;48368;53.406;6.214;2023-01-15T01:57:26;18.02;;;2.92;;
62338;SDS011;48368;53.406;6.214;2023-01-15T01:59:52;20.98;;;2.92;;
62338;SDS011;48368;53.406;6.214;2023-01-15T02:02:22;24.38;;;4.25;;
62338;SDS011;48368;53.406;6.214;2023-01-15T02:04:50;14.60;;;3.42;;
62338;SDS011;48368;53.406;6.214;2023-01-15T02:07:24;15.05;;;2.30;;
62338;SDS011;48368;53.406;6.214;2023-01-15T02:09:50;27.27;;;4.88;;
62338;SDS011;48368;53.406;6.214;2023-01-15T02:12:21;25.75;;;3.35;;
62338;SDS011;48368;53.406;6.214;2023-01-15T02:32:56;14.70;;;2.78;;
62338;SDS011;48368;53.406;6.214;2023-01-15T02:41:42;25.55;;;4.00;;
62338;SDS011;48368;53.406;6.214;2023-01-15T02:44:41;18.55;;;4.30;;
62338;SDS011;48368;53.406;6.214;2023-01-15T03:21:30;13.80;;;2.65;;
62338;SDS011;48368;53.406;6.214;2023-01-15T03:29:32;20.20;;;2.80;;
62338;SDS011;48368;53.406;6.214;2023-01-15T03:32:42;29.77;;;3.58;;
62338;SDS011;48368;53.406;6.214;2023-01-15T03:56:57;21.75;;;3.88;;
62338;SDS011;48368;53.406;6.214;2023-01-15T03:59:39;17.85;;;2.90;;
62338;SDS011;48368;53.406;6.214;2023-01-15T04:02:14;20.70;;;2.83;;
62338;SDS011;48368;53.406;6.214;2023-01-15T04:23:47;18.38;;;3.22;;
62338;SDS011;48368;53.406;6.214;2023-01-15T04:26:20;16.02;;;2.17;;
62338;SDS011;48368;53.406;6.214;2023-01-15T04:42:32;19.33;;;2.40;;
62338;SDS011;48368;53.406;6.214;2023-01-15T05:13:05;13.68;;;2.83;;
62338;SDS011;48368;53.406;6.214;2023-01-15T05:15:31;14.25;;;2.47;;
62338;SDS011;48368;53.406;6.214;2023-01-15T05:18:52;19.50;;;3.25;;
62338;SDS011;48368;53.406;6.214;2023-01-15T05:21:24;21.20;;;3.08;;
62338;SDS011;48368;53.406;6.214;2023-01-15T05:23:55;16.70;;;1.80;;
62338;SDS011;48368;53.406;6.214;2023-01-15T05:26:21;18.20;;;2.30;;
62338;SDS011;48368;53.406;6.214;2023-01-15T05:28:47;19.00;;;2.70;;
62338;SDS011;48368;53.406;6.214;2023-01-15T05:52:24;23.35;;;3.72;;
62338;SDS011;48368;53.406;6.214;2023-01-15T06:23:33;16.33;;;3.10;;
62338;SDS011;48368;53.406;6.214;2023-01-15T06:29:08;27.70;;;3.67;;
62338;SDS011;48368;53.406;6.214;2023-01-15T06:31:34;19.27;;;3.13;;
62338;SDS011;48368;53.406;6.214;2023-01-15T06:34:00;21.00;;;3.30;;
62338;SDS011;48368;53.406;6.214;2023-01-15T06:36:26;10.48;;;2.35;;
62338;SDS011;48368;53.406;6.214;2023-01-15T06:52:37;19.52;;;2.35;;
62338;SDS011;48368;53.406;6.214;2023-01-15T07:02:48;15.52;;;2.72;;
62338;SDS011;48368;53.406;6.214;2023-01-15T07:05:14;18.67;;;2.70;;
62338;SDS011;48368;53.406;6.214;2023-01-15T07:41:20;12.55;;;1.90;;
62338;SDS011;48368;53.406;6.214;2023-01-15T07:44:23;12.10;;;1.98;;
62338;SDS011;48368;53.406;6.214;2023-01-15T07:47:11;8.07;;;1.95;;
62338;SDS011;48368;53.406;6.214;2023-01-15T07:50:17;25.33;;;2.70;;
62338;SDS011;48368;53.406;6.214;2023-01-15T07:52:44;13.95;;;2.40;;
62338;SDS011;48368;53.406;6.214;2023-01-15T07:55:15;22.05;;;3.67;;
62338;SDS011;48368;53.406;6.214;2023-01-15T07:57:41;18.50;;;2.50;;
62338;SDS011;48368;53.406;6.214;2023-01-15T08:00:12;12.07;;;2.90;;
62338;SDS011;48368;53.406;6.214;2023-01-15T08:02:39;11.50;;;1.58;;
62338;SDS011;48368;53.406;6.214;2023-01-15T08:05:08;18.08;;;2.20;;
62338;SDS011;48368;53.406;6.214;2023-01-15T08:07:37;21.70;;;2.33;;
62338;SDS011;48368;53.406;6.214;2023-01-15T08:10:03;20.67;;;3.08;;
62338;SDS011;48368;53.406;6.214;2023-01-15T08:12:35;21.83;;;4.15;;
62338;SDS011;48368;53.406;6.214;2023-01-15T08:17:54;17.92;;;3.03;;
62338;SDS011;48368;53.406;6.214;2023-01-15T08:20:22;10.45;;;2.83;;
62338;SDS011;48368;53.406;6.214;2023-01-15T08:22:53;14.60;;;2.73;;
62338;SDS011;48368;53.406;6.214;2023-01-15T08:25:20;15.32;;;2.85;;
62338;SDS011;48368;53.406;6.214;2023-01-15T08:27:48;14.65;;;2.40;;
62338;SDS011;48368;53.406;6.214;2023-01-15T08:30:19;11.55;;;1.75;;
62338;SDS011;48368;53.406;6.214;2023-01-15T08:32:46;10.13;;;2.40;;
62338;SDS011;48368;53.406;6.214;2023-01-15T08:35:15;10.82;;;3.03;;
62338;SDS011;48368;53.406;6.214;2023-01-15T08:37:40;16.27;;;3.20;;
62338;SDS011;48368;53.406;6.214;2023-01-15T08:43:57;11.10;;;2.05;;
62338;SDS011;48368;53.406;6.214;2023-01-15T08:46:24;13.02;;;2.30;;
62338;SDS011;48368;53.406;6.214;2023-01-15T08:48:49;19.42;;;3.05;;
62338;SDS011;48368;53.406;6.214;2023-01-15T08:52:14;17.35;;;3.08;;
62338;SDS011;48368;53.406;6.214;2023-01-15T08:54:40;18.98;;;1.88;;
62338;SDS011;48368;53.406;6.214;2023-01-15T09:11:43;21.67;;;2.38;;
62338;SDS011;48368;53.406;6.214;2023-01-15T09:17:44;16.23;;;2.72;;
62338;SDS011;48368;53.406;6.214;2023-01-15T09:27:22;22.13;;;2.17;;
62338;SDS011;48368;53.406;6.214;2023-01-15T09:33:36;21.58;;;3.35;;
62338;SDS011;48368;53.406;6.214;2023-01-15T09:36:02;24.38;;;3.33;;
62338;SDS011;48368;53.406;6.214;2023-01-15T09:41:37;16.80;;;2.33;;
62338;SDS011;48368;53.406;6.214;2023-01-15T09:48:58;15.23;;;2.45;;
62338;SDS011;48368;53.406;6.214;2023-01-15T10:25:09;11.13;;;2.40;;
62338;SDS011;48368;53.406;6.214;2023-01-15T10:27:45;14.13;;;2.03;;
62338;SDS011;48368;53.406;6.214;2023-01-15T10:30:20;11.82;;;1.50;;
62338;SDS011;48368;53.406;6.214;2023-01-15T10:32:53;13.13;;;2.05;;
62338;SDS011;48368;53.406;6.214;2023-01-15T10:46:35;22.50;;;4.10;;
62338;SDS011;48368;53.406;6.214;2023-01-15T11:09:00;15.68;;;2.83;;
62338;SDS011;48368;53.406;6.214;2023-01-15T11:17:20;15.50;;;3.67;;
62338;SDS011;48368;53.406;6.214;2023-01-15T11:20:12;23.95;;;3.13;;
62338;SDS011;48368;53.406;6.214;2023-01-15T11:23:43;18.60;;;3.33;;
62338;SDS011;48368;53.406;6.214;2023-01-15T11:26:26;21.55;;;2.22;;
62338;SDS011;48368;53.406;6.214;2023-01-15T11:36:41;16.02;;;2.28;;
62338;SDS011;48368;53.406;6.214;2023-01-15T11:39:20;21.17;;;2.35;;
62338;SDS011;48368;53.406;6.214;2023-01-15T11:45:55;9.02;;;2.42;;
62338;SDS011;48368;53.406;6.214;2023-01-15T11:48:48;21.65;;;3.83;;
62338;SDS011;48368;53.406;6.214;2023-01-15T11:51:34;10.90;;;3.20;;
62338;SDS011;48368;53.406;6.214;2023-01-15T11:54:44;17.88;;;4.45;;
62338;SDS011;48368;53.406;6.214;2023-01-15T11:57:31;23.10;;;3.45;;
62338;SDS011;48368;53.406;6.214;2023-01-15T12:38:12;15.55;;;3.00;;
62338;SDS011;48368;53.406;6.214;2023-01-15T12:59:15;15.73;;;2.10;;
62338;SDS011;48368;53.406;6.214;2023-01-15T13:14:46;21.20;;;3.00;;
62338;SDS011;48368;53.406;6.214;2023-01-15T13:40:53;19.75;;;3.15;;
62338;SDS011;48368;53.406;6.214;2023-01-15T13:48:00;24.10;;;3.70;;
62338;SDS011;48368;53.406;6.214;2023-01-15T13:50:35;18.52;;;3.92;;
62338;SDS011;48368;53.406;6.214;2023-01-15T14:09:36;24.45;;;3.63;;
62338;SDS011;48368;53.406;6.214;2023-01-15T14:12:24;19.98;;;3.47;;
62338;SDS011;48368;53.406;6.214;2023-01-15T14:35:15;22.05;;;3.80;;
62338;SDS011;48368;53.406;6.214;2023-01-15T14:37:57;26.42;;;4.90;;
62338;SDS011;48368;53.406;6.214;2023-01-15T14:40:32;25.02;;;4.78;;
62338;SDS011;48368;53.406;6.214;2023-01-15T14:43:00;23.88;;;3.47;;
62338;SDS011;48368;53.406;6.214;2023-01-15T14:48:05;23.00;;;3.75;;
62338;SDS011;48368;53.406;6.214;2023-01-15T14:53:52;32.13;;;5.32;;
62338;SDS011;48368;53.406;6.214;2023-01-15T14:56:33;18.65;;;2.92;;
62338;SDS011;48368;53.406;6.214;2023-01-15T15:06:15;26.10;;;4.53;;
62338;SDS011;48368;53.406;6.214;2023-01-15T15:12:13;16.92;;;3.65;;
62338;SDS011;48368;53.406;6.214;2023-01-15T15:17:26;26.73;;;4.32;;
62338;SDS011;48368;53.406;6.214;2023-01-15T15:20:05;24.33;;;4.50;;
62338;SDS011;48368;53.406;6.214;2023-01-15T15:22:44;31.10;;;4.40;;
62338;SDS011;48368;53.406;6.214;2023-01-15T15:25:14;27.25;;;5.30;;
62338;SDS011;48368;53.406;6.214;2023-01-15T15:40:14;19.77;;;3.45;;
62338;SDS011;48368;53.406;6.214;2023-01-15T15:45:53;26.85;;;4.22;;
62338;SDS011;48368;53.406;6.214;2023-01-15T15:48:39;19.02;;;3.58;;
62338;SDS011;48368;53.406;6.214;2023-01-15T15:51:27;23.73;;;3.45;;
62338;SDS011;48368;53.406;6.214;2023-01-15T15:54:11;27.27;;;4.18;;
62338;SDS011;48368;53.406;6.214;2023-01-15T15:59:45;20.52;;;2.92;;
62338;SDS011;48368;53.406;6.214;2023-01-15T16:02:30;17.67;;;3.50;;
62338;SDS011;48368;53.406;6.214;2023-01-15T16:05:20;21.58;;;4.47;;
62338;SDS011;48368;53.406;6.214;2023-01-15T16:07:47;16.60;;;3.67;;
62338;SDS011;48368;53.406;6.214;2023-01-15T16:13:13;16.05;;;3.67;;
62338;SDS011;48368;53.406;6.214;2023-01-15T16:16:10;19.97;;;2.43;;
62338;SDS011;48368;53.406;6.214;2023-01-15T16:18:48;20.83;;;2.80;;
62338;SDS011;48368;53.406;6.214;2023-01-15T16:21:16;18.58;;;2.78;;
62338;SDS011;48368;53.406;6.214;2023-01-15T16:23:56;19.15;;;3.10;;
62338;SDS011;48368;53.406;6.214;2023-01-15T16:32:00;23.77;;;5.07;;
62338;SDS011;48368;53.406;6.214;2023-01-15T16:34:36;30.08;;;5.90;;
62338;SDS011;48368;53.406;6.214;2023-01-15T16:44:09;24.10;;;3.35;;
62338;SDS011;48368;53.406;6.214;2023-01-15T16:56:03;23.25;;;4.97;;
62338;SDS011;48368;53.406;6.214;2023-01-15T16:58:39;24.30;;;4.10;;
62338;SDS011;48368;53.406;6.214;2023-01-15T17:04:27;26.52;;;3.85;;
62338;SDS011;48368;53.406;6.214;2023-01-15T17:13:23;23.40;;;4.75;;
62338;SDS011;48368;53.406;6.214;2023-01-15T17:17:13;25.33;;;5.30;;
62338;SDS011;48368;53.406;6.214;2023-01-15T17:24:27;18.30;;;3.15;;
62338;SDS011;48368;53.406;6.214;2023-01-15T17:35:45;14.15;;;3.53;;
62338;SDS011;48368;53.406;6.214;2023-01-15T17:50:50;20.88;;;3.50;;
62338;SDS011;48368;53.406;6.214;2023-01-15T17:53:21;21.23;;;4.28;;
62338;SDS011;48368;53.406;6.214;2023-01-15T18:13:03;21.20;;;4.93;;
62338;SDS011;48368;53.406;6.214;2023-01-15T18:15:31;22.35;;;5.60;;
62338;SDS011;48368;53.406;6.214;2023-01-15T18:21:20;17.23;;;5.05;;
62338;SDS011;48368;53.406;6.214;2023-01-15T18:27:02;27.80;;;5.20;;
62338;SDS011;48368;53.406;6.214;2023-01-15T18:30:15;33.90;;;6.20;;
62338;SDS011;48368;53.406;6.214;2023-01-15T18:32:51;25.35;;;4.82;;
62338;SDS011;48368;53.406;6.214;2023-01-15T18:35:42;24.90;;;5.68;;
62338;SDS011;48368;53.406;6.214;2023-01-15T18:38:14;26.33;;;5.75;;
62338;SDS011;48368;53.406;6.214;2023-01-15T18:40:40;25.83;;;6.50;;
62338;SDS011;48368;53.406;6.214;2023-01-15T18:43:05;24.65;;;5.20;;
62338;SDS011;48368;53.406;6.214;2023-01-15T18:45:51;15.65;;;3.78;;
62338;SDS011;48368;53.406;6.214;2023-01-15T18:48:35;20.95;;;3.83;;
62338;SDS011;48368;53.406;6.214;2023-01-15T18:51:09;18.85;;;4.38;;
62338;SDS011;48368;53.406;6.214;2023-01-15T18:53:35;29.13;;;4.65;;
62338;SDS011;48368;53.406;6.214;2023-01-15T18:56:03;17.60;;;4.68;;
62338;SDS011;48368;53.406;6.214;2023-01-15T18:58:30;18.13;;;4.68;;
62338;SDS011;48368;53.406;6.214;2023-01-15T19:01:04;22.23;;;4.00;;
62338;SDS011;48368;53.406;6.214;2023-01-15T19:03:32;18.80;;;3.83;;
62338;SDS011;48368;53.406;6.214;2023-01-15T19:06:05;17.77;;;4.20;;
62338;SDS011;48368;53.406;6.214;2023-01-15T19:08:33;17.75;;;4.35;;
62338;SDS011;48368;53.406;6.214;2023-01-15T19:10:59;22.63;;;5.20;;
62338;SDS011;48368;53.406;6.214;2023-01-15T19:13:27;27.27;;;5.93;;
62338;SDS011;48368;53.406;6.214;2023-01-15T19:15:55;22.35;;;5.20;;
62338;SDS011;48368;53.406;6.214;2023-01-15T19:19:04;19.17;;;4.18;;
62338;SDS011;48368;53.406;6.214;2023-01-15T19:21:33;22.23;;;4.63;;
62338;SDS011;48368;53.406;6.214;2023-01-15T19:24:01;25.42;;;4.68;;
62338;SDS011;48368;53.406;6.214;2023-01-15T19:26:31;14.90;;;4.13;;
62338;SDS011;48368;53.406;6.214;2023-01-15T19:29:04;21.98;;;4.55;;
62338;SDS011;48368;53.406;6.214;2023-01-15T19:34:14;31.42;;;5.32;;
62338;SDS011;48368;53.406;6.214;2023-01-15T19:36:41;26.02;;;5.50;;
62338;SDS011;48368;53.406;6.214;2023-01-15T19:39:07;21.08;;;4.03;;
62338;SDS011;48368;53.406;6.214;2023-01-15T19:41:35;19.90;;;4.55;;
62338;SDS011;48368;53.406;6.214;2023-01-15T19:44:40;18.25;;;4.30;;
62338;SDS011;48368;53.406;6.214;2023-01-15T19:47:29;19.38;;;4.35;;
62338;SDS011;48368;53.406;6.214;2023-01-15T19:50:33;17.55;;;4.63;;
62338;SDS011;48368;53.406;6.214;2023-01-15T19:53:00;20.92;;;6.38;;
62338;SDS011;48368;53.406;6.214;2023-01-15T19:55:28;25.55;;;5.18;;
62338;SDS011;48368;53.406;6.214;2023-01-15T19:57:57;21.15;;;5.03;;
62338;SDS011;48368;53.406;6.214;2023-01-15T20:00:25;16.73;;;4.50;;
62338;SDS011;48368;53.406;6.214;2023-01-15T20:02:52;16.25;;;4.13;;
62338;SDS011;48368;53.406;6.214;2023-01-15T20:05:21;38.78;;;6.35;;
62338;SDS011;48368;53.406;6.214;2023-01-15T20:07:49;16.15;;;4.60;;
62338;SDS011;48368;53.406;6.214;2023-01-15T20:12:47;21.23;;;5.50;;
62338;SDS011;48368;53.406;6.214;2023-01-15T20:15:32;19.45;;;4.25;;
62338;SDS011;48368;53.406;6.214;2023-01-15T20:18:00;27.67;;;5.22;;
62338;SDS011;48368;53.406;6.214;2023-01-15T20:20:26;29.52;;;4.65;;
62338;SDS011;48368;53.406;6.214;2023-01-15T20:22:54;16.90;;;3.70;;
62338;SDS011;48368;53.406;6.214;2023-01-15T20:25:22;20.30;;;5.15;;
62338;SDS011;48368;53.406;6.214;2023-01-15T20:27:50;23.75;;;4.80;;
62338;SDS011;48368;53.406;6.214;2023-01-15T20:30:17;21.05;;;3.70;;
62338;SDS011;48368;53.406;6.214;2023-01-15T20:32:54;17.70;;;3.85;;
62338;SDS011;48368;53.406;6.214;2023-01-15T20:35:24;21.77;;;5.18;;
62338;SDS011;48368;53.406;6.214;2023-01-15T20:37:55;18.90;;;4.95;;
62338;SDS011;48368;53.406;6.214;2023-01-15T20:40:24;16.80;;;4.60;;
62338;SDS011;48368;53.406;6.214;2023-01-15T20:42:51;17.83;;;4.05;;
62338;SDS011;48368;53.406;6.214;2023-01-15T20:48:51;19.92;;;4.70;;
62338;SDS011;48368;53.406;6.214;2023-01-15T20:51:35;17.13;;;3.30;;
62338;SDS011;48368;53.406;6.214;2023-01-15T20:56:48;17.60;;;4.47;;
62338;SDS011;48368;53.406;6.214;2023-01-15T20:59:20;21.17;;;4.75;;
62338;SDS011;48368;53.406;6.214;2023-01-15T21:01:45;26.30;;;5.38;;
62338;SDS011;48368;53.406;6.214;2023-01-15T21:04:11;20.42;;;3.92;;
62338;SDS011;48368;53.406;6.214;2023-01-15T21:06:40;28.50;;;6.40;;
62338;SDS011;48368;53.406;6.214;2023-01-15T21:09:06;19.40;;;4.20;;
62338;SDS011;48368;53.406;6.214;2023-01-15T21:11:34;23.52;;;5.68;;
62338;SDS011;48368;53.406;6.214;2023-01-15T21:14:00;19.30;;;4.45;;
62338;SDS011;48368;53.406;6.214;2023-01-15T21:16:38;17.10;;;3.72;;
62338;SDS011;48368;53.406;6.214;2023-01-15T21:19:03;21.02;;;3.40;;
62338;SDS011;48368;53.406;6.214;2023-01-15T21:21:29;20.80;;;4.43;;
62338;SDS011;48368;53.406;6.214;2023-01-15T21:23:57;19.30;;;4.47;;
62338;SDS011;48368;53.406;6.214;2023-01-15T21:26:23;16.92;;;5.10;;
62338;SDS011;48368;53.406;6.214;2023-01-15T21:28:58;15.35;;;3.78;;
62338;SDS011;48368;53.406;6.214;2023-01-15T22:12:37;11.07;;;4.75;;
62338;SDS011;48368;53.406;6.214;2023-01-15T22:25:01;14.80;;;7.13;;
62338;SDS011;48368;53.406;6.214;2023-01-15T22:27:29;14.43;;;7.00;;
62338;SDS011;48368;53.406;6.214;2023-01-15T22:29:55;15.70;;;7.40;;
62338;SDS011;48368;53.406;6.214;2023-01-15T22:32:20;14.55;;;6.90;;
62338;SDS011;48368;53.406;6.214;2023-01-15T22:34:46;14.88;;;7.15;;
62338;SDS011;48368;53.406;6.214;2023-01-15T22:39:56;15.65;;;7.70;;
62338;SDS011;48368;53.406;6.214;2023-01-15T22:47:16;18.58;;;7.78;;
62338;SDS011;48368;53.406;6.214;2023-01-15T23:02:30;20.30;;;9.90;;
62338;SDS011;48368;53.406;6.214;2023-01-15T23:05:26;20.25;;;9.65;;
62338;SDS011;48368;53.406;6.214;2023-01-15T23:15:21;24.67;;;9.98;;
62338;SDS011;48368;53.406;6.214;2023-01-15T23:34:33;16.15;;;7.97;;
62338;SDS011;48368;53.406;6.214;2023-01-15T23:37:01;19.50;;;8.98;;
62338;SDS011;48368;53.406;6.214;2023-01-15T23:39:33;25.73;;;9.10;;
62338;SDS011;48368;53.406;6.214;2023-01-15T23:41:59;20.77;;;9.05;;
62338;SDS011;48368;53.406;6.214;2023-01-15T23:44:43;24.42;;;10.02;;
62338;SDS011;48368;53.406;6.214;2023-01-15T23:47:31;26.70;;;11.27;;
62338;SDS011;48368;53.406;6.214;2023-01-15T23:50:17;31.55;;;11.65;;
62338;SDS011;48368;53.406;6.214;2023-01-15T23:55:18;29.58;;;12.70;;
62338;SDS011;48368;53.406;6.214;2023-01-15T23:57:45;30.40;;;12.77;;
